createdAt,value
2019-01-30T00:00:22.928Z,-2.20
2019-01-30T00:02:52.446Z,-2.30
2019-01-30T00:05:21.911Z,-2.40
2019-01-30T00:07:51.351Z,-2.40
2019-01-30T00:10:21.175Z,-2.40
2019-01-30T00:12:50.617Z,-2.40
2019-01-30T00:15:20.263Z,-2.40
2019-01-30T00:17:49.716Z,-2.40
2019-01-30T00:20:19.163Z,-2.40
2019-01-30T00:22:48.621Z,-2.40
2019-01-30T00:25:18.131Z,-2.40
2019-01-30T00:27:47.641Z,-2.40
2019-01-30T00:30:17.553Z,-2.40
2019-01-30T00:32:46.995Z,-2.50
2019-01-30T00:35:16.441Z,-2.50
2019-01-30T00:37:45.890Z,-2.50
2019-01-30T00:40:16.250Z,-2.50
2019-01-30T00:42:45.701Z,-2.50
2019-01-30T00:45:15.404Z,-2.40
2019-01-30T00:47:44.960Z,-2.50
2019-01-30T00:50:15.039Z,-2.50
2019-01-30T00:52:44.600Z,-2.50
2019-01-30T00:55:14.286Z,-2.60
2019-01-30T00:57:43.767Z,-2.60
2019-01-30T01:00:16.419Z,-2.60
2019-01-30T01:02:45.871Z,-2.60
2019-01-30T01:05:16.093Z,-2.70
2019-01-30T01:07:45.623Z,-2.70
2019-01-30T01:10:16.556Z,-2.70
2019-01-30T01:12:46.300Z,-2.80
2019-01-30T01:15:15.971Z,-2.80
2019-01-30T01:17:46.415Z,-2.80
2019-01-30T01:20:16.083Z,-2.80
2019-01-30T01:22:45.591Z,-2.90
2019-01-30T01:25:16.024Z,-2.90
2019-01-30T01:27:45.564Z,-2.90
2019-01-30T01:30:24.883Z,-3.00
2019-01-30T01:32:48.717Z,-3.10
2019-01-30T01:35:18.172Z,-3.10
2019-01-30T01:37:48.083Z,-3.20
2019-01-30T01:40:17.555Z,-3.20
2019-01-30T01:42:47.195Z,-3.20
2019-01-30T01:45:18.431Z,-3.20
2019-01-30T01:47:48.765Z,-3.20
2019-01-30T01:50:20.283Z,-3.20
2019-01-30T01:52:49.834Z,-3.20
2019-01-30T01:55:19.323Z,-3.20
2019-01-30T01:57:48.773Z,-3.20
2019-01-30T02:00:20.183Z,-3.10
2019-01-30T02:02:49.735Z,-3.20
2019-01-30T02:05:21.144Z,-3.20
2019-01-30T02:07:50.938Z,-3.20
2019-01-30T02:10:21.900Z,-3.20
2019-01-30T02:12:51.400Z,-3.20
2019-01-30T02:15:22.315Z,-3.20
2019-01-30T02:17:52.051Z,-3.20
2019-01-30T02:20:27.127Z,-3.20
2019-01-30T02:22:56.587Z,-3.20
2019-01-30T02:25:26.027Z,-3.20
2019-01-30T02:27:55.793Z,-3.20
2019-01-30T02:30:27.266Z,-3.20
2019-01-30T02:32:57.269Z,-3.20
2019-01-30T02:35:27.131Z,-3.20
2019-01-30T02:37:56.575Z,-3.20
2019-01-30T02:40:26.012Z,-3.30
2019-01-30T02:42:55.464Z,-3.30
2019-01-30T02:45:26.118Z,-3.30
2019-01-30T02:47:55.581Z,-3.30
2019-01-30T02:50:25.157Z,-3.30
2019-01-30T02:52:54.766Z,-3.30
2019-01-30T02:55:24.191Z,-3.40
2019-01-30T02:57:53.951Z,-3.40
2019-01-30T03:00:28.480Z,-3.40
2019-01-30T03:02:57.947Z,-3.40
2019-01-30T03:05:28.103Z,-3.50
2019-01-30T03:07:57.783Z,-3.50
2019-01-30T03:10:27.361Z,-3.50
2019-01-30T03:12:57.339Z,-3.50
2019-01-30T03:15:27.774Z,-3.50
2019-01-30T03:17:57.204Z,-3.50
2019-01-30T03:20:27.172Z,-3.60
2019-01-30T03:22:56.658Z,-3.50
2019-01-30T03:25:26.271Z,-3.50
2019-01-30T03:27:55.873Z,-3.50
2019-01-30T03:30:27.721Z,-3.50
2019-01-30T03:32:57.178Z,-3.60
2019-01-30T03:35:26.651Z,-3.60
2019-01-30T03:37:56.105Z,-3.60
2019-01-30T03:40:25.656Z,-3.60
2019-01-30T03:42:55.189Z,-3.70
2019-01-30T03:45:25.101Z,-3.70
2019-01-30T03:47:54.584Z,-3.70
2019-01-30T03:50:24.020Z,-3.70
2019-01-30T03:52:53.521Z,-3.70
2019-01-30T03:55:22.993Z,-3.70
2019-01-30T03:57:52.449Z,-3.70
2019-01-30T04:00:26.445Z,-3.70
2019-01-30T04:02:56.547Z,-3.70
2019-01-30T04:05:25.992Z,-3.70
2019-01-30T04:07:55.784Z,-3.70
2019-01-30T04:10:25.338Z,-3.70
2019-01-30T04:12:54.773Z,-3.70
2019-01-30T04:15:24.252Z,-3.70
2019-01-30T04:17:53.764Z,-3.60
2019-01-30T04:20:23.174Z,-3.60
2019-01-30T04:22:52.633Z,-3.60
2019-01-30T04:25:22.068Z,-3.50
2019-01-30T04:27:51.521Z,-3.50
2019-01-30T04:30:25.238Z,-3.50
2019-01-30T04:32:54.759Z,-3.50
2019-01-30T04:35:24.229Z,-3.50
2019-01-30T04:37:53.679Z,-3.50
2019-01-30T04:40:24.028Z,-3.50
2019-01-30T04:42:54.176Z,-3.50
2019-01-30T04:45:24.802Z,-3.50
2019-01-30T04:47:54.206Z,-3.60
2019-01-30T04:50:23.647Z,-3.60
2019-01-30T04:52:53.114Z,-3.60
2019-01-30T04:55:23.436Z,-3.60
2019-01-30T04:57:52.895Z,-3.60
2019-01-30T05:00:24.198Z,-3.60
2019-01-30T05:02:53.670Z,-3.60
2019-01-30T05:05:23.123Z,-3.60
2019-01-30T05:07:52.715Z,-3.60
2019-01-30T05:10:22.957Z,-3.60
2019-01-30T05:12:52.432Z,-3.60
2019-01-30T05:15:21.897Z,-3.50
2019-01-30T05:17:51.376Z,-3.60
2019-01-30T05:20:21.003Z,-3.60
2019-01-30T05:22:50.459Z,-3.60
2019-01-30T05:25:20.096Z,-3.60
2019-01-30T05:27:49.526Z,-3.50
2019-01-30T05:30:30.696Z,-3.60
2019-01-30T05:33:00.143Z,-3.50
2019-01-30T05:35:29.585Z,-3.50
2019-01-30T05:37:59.030Z,-3.50
2019-01-30T05:40:28.593Z,-3.50
2019-01-30T05:42:58.367Z,-3.50
2019-01-30T05:45:27.805Z,-3.50
2019-01-30T05:47:57.236Z,-3.40
2019-01-30T05:50:27.096Z,-3.40
2019-01-30T05:52:56.568Z,-3.40
2019-01-30T05:55:26.027Z,-3.40
2019-01-30T05:57:56.157Z,-3.40
2019-01-30T06:00:30.369Z,-3.40
2019-01-30T06:02:59.857Z,-3.50
2019-01-30T06:05:29.407Z,-3.50
2019-01-30T06:07:59.163Z,-3.50
2019-01-30T06:10:28.598Z,-3.50
2019-01-30T06:12:58.097Z,-3.50
2019-01-30T06:15:27.540Z,-3.50
2019-01-30T06:17:57.028Z,-3.50
2019-01-30T06:20:27.517Z,-3.50
2019-01-30T06:22:57.258Z,-3.60
2019-01-30T06:25:28.703Z,-3.60
2019-01-30T06:27:58.109Z,-3.60
2019-01-30T06:30:27.580Z,-3.50
2019-01-30T06:32:57.067Z,-3.40
2019-01-30T06:35:26.519Z,-3.40
2019-01-30T06:37:56.002Z,-3.40
2019-01-30T06:40:27.838Z,-3.40
2019-01-30T06:42:57.667Z,-3.30
2019-01-30T06:45:27.135Z,-3.30
2019-01-30T06:47:56.658Z,-3.30
2019-01-30T06:50:26.159Z,-3.30
2019-01-30T06:52:55.606Z,-3.30
2019-01-30T06:55:25.031Z,-3.30
2019-01-30T06:57:54.517Z,-3.30
2019-01-30T07:00:25.738Z,-3.30
2019-01-30T07:02:56.020Z,-3.20
2019-01-30T07:05:25.751Z,-3.20
2019-01-30T07:07:55.187Z,-3.20
2019-01-30T07:10:26.795Z,-3.20
2019-01-30T07:12:56.260Z,-3.10
2019-01-30T07:15:25.874Z,-3.00
2019-01-30T07:17:55.620Z,-2.90
2019-01-30T07:20:25.185Z,-2.90
2019-01-30T07:22:54.666Z,-2.70
2019-01-30T07:25:24.121Z,-2.70
2019-01-30T07:27:53.552Z,-2.60
2019-01-30T07:30:31.513Z,-2.60
2019-01-30T07:33:01.114Z,-2.50
2019-01-30T07:35:31.080Z,-2.40
2019-01-30T07:38:00.672Z,-2.40
2019-01-30T07:40:30.125Z,-2.30
2019-01-30T07:42:59.587Z,-2.30
2019-01-30T07:45:29.721Z,-2.30
2019-01-30T07:47:59.232Z,-2.30
2019-01-30T07:50:28.783Z,-2.30
2019-01-30T07:52:59.117Z,-2.30
2019-01-30T07:55:28.686Z,-2.20
2019-01-30T07:57:58.186Z,-2.10
2019-01-30T08:00:32.758Z,-2.10
2019-01-30T08:03:02.751Z,-2.10
2019-01-30T08:05:32.177Z,-2.10
2019-01-30T08:08:02.043Z,-2.00
2019-01-30T08:10:31.495Z,-2.00
2019-01-30T08:13:00.981Z,-2.00
2019-01-30T08:15:30.473Z,-2.00
2019-01-30T08:18:00.083Z,-1.90
2019-01-30T08:20:29.540Z,-1.80
2019-01-30T08:22:59.172Z,-1.70
2019-01-30T08:25:28.899Z,-1.60
2019-01-30T08:27:58.691Z,-1.50
2019-01-30T08:30:30.741Z,-1.50
2019-01-30T08:33:05.820Z,-1.30
2019-01-30T08:35:33.531Z,-1.20
2019-01-30T08:38:03.055Z,-1.10
2019-01-30T08:40:32.784Z,-0.90
2019-01-30T08:43:02.253Z,-0.80
2019-01-30T08:45:32.434Z,-0.70
2019-01-30T08:48:02.140Z,-0.60
2019-01-30T08:50:31.733Z,-0.60
2019-01-30T08:53:01.295Z,-0.50
2019-01-30T08:55:30.730Z,-0.40
2019-01-30T08:58:00.211Z,-0.40
2019-01-30T09:00:30.453Z,-0.40
2019-01-30T09:03:00.469Z,-0.40
2019-01-30T09:05:29.929Z,-0.40
2019-01-30T09:07:59.844Z,-0.40
2019-01-30T09:10:29.511Z,-0.40
2019-01-30T09:13:00.103Z,-0.40
2019-01-30T09:15:29.959Z,-0.30
2019-01-30T09:17:59.437Z,-0.30
2019-01-30T09:20:28.929Z,-0.20
2019-01-30T09:22:58.419Z,-0.10
2019-01-30T09:25:29.470Z,-0.10
2019-01-30T09:28:00.312Z,-0.10
2019-01-30T09:30:32.287Z,0.00
2019-01-30T09:33:01.779Z,0.10
2019-01-30T09:35:31.248Z,0.10
2019-01-30T09:38:00.703Z,0.20
2019-01-30T09:40:30.172Z,0.30
2019-01-30T09:42:59.559Z,0.50
2019-01-30T09:45:29.009Z,0.70
2019-01-30T09:47:58.432Z,0.90
2019-01-30T09:50:27.894Z,1.10
2019-01-30T09:52:57.351Z,1.10
2019-01-30T09:55:26.839Z,1.10
2019-01-30T09:57:56.401Z,1.10
2019-01-30T10:00:43.786Z,1.20
2019-01-30T10:03:13.213Z,1.30
2019-01-30T10:05:42.706Z,1.20
2019-01-30T10:08:12.118Z,1.30
2019-01-30T10:10:41.708Z,1.30
2019-01-30T10:13:11.289Z,1.30
2019-01-30T10:15:42.714Z,1.30
2019-01-30T10:18:13.467Z,1.30
2019-01-30T10:20:47.554Z,1.30
2019-01-30T10:23:17.178Z,1.30
2019-01-30T10:25:46.625Z,1.30
2019-01-30T10:28:17.183Z,1.20
2019-01-30T10:30:47.105Z,1.20
2019-01-30T10:33:17.164Z,1.10
2019-01-30T10:35:46.995Z,1.10
2019-01-30T10:38:16.629Z,1.30
2019-01-30T10:40:46.077Z,1.30
2019-01-30T10:43:15.531Z,1.30
2019-01-30T10:45:45.037Z,1.40
2019-01-30T10:48:14.614Z,1.50
2019-01-30T10:50:44.163Z,1.50
2019-01-30T10:53:13.580Z,1.60
2019-01-30T10:55:43.023Z,1.70
2019-01-30T10:58:15.802Z,1.80
2019-01-30T11:00:50.385Z,1.80
2019-01-30T11:03:20.351Z,1.80
2019-01-30T11:05:49.924Z,1.60
2019-01-30T11:08:19.364Z,1.50
2019-01-30T11:10:50.769Z,1.50
2019-01-30T11:13:19.919Z,1.50
2019-01-30T11:15:49.416Z,1.60
2019-01-30T11:18:19.299Z,1.60
2019-01-30T11:20:48.765Z,1.50
2019-01-30T11:23:18.201Z,1.40
2019-01-30T11:25:49.255Z,1.40
2019-01-30T11:28:18.844Z,1.40
2019-01-30T11:30:48.289Z,1.50
2019-01-30T11:33:18.166Z,1.60
2019-01-30T11:35:47.611Z,1.70
2019-01-30T11:38:17.086Z,1.70
2019-01-30T11:40:46.598Z,1.70
2019-01-30T11:43:16.018Z,1.80
2019-01-30T11:45:46.275Z,1.90
2019-01-30T11:48:15.801Z,1.90
2019-01-30T11:50:45.347Z,1.90
2019-01-30T11:53:14.794Z,1.80
2019-01-30T11:55:44.274Z,1.80
2019-01-30T11:58:13.708Z,1.80
2019-01-30T12:00:47.101Z,1.80
2019-01-30T12:03:16.554Z,1.70
2019-01-30T12:05:47.404Z,1.80
2019-01-30T12:08:16.854Z,1.90
2019-01-30T12:10:46.595Z,1.70
2019-01-30T12:13:16.045Z,1.70
2019-01-30T12:15:46.036Z,1.70
2019-01-30T12:18:15.483Z,1.80
2019-01-30T12:20:45.438Z,1.90
2019-01-30T12:23:14.869Z,1.90
2019-01-30T12:25:44.460Z,1.90
2019-01-30T12:28:13.908Z,2.00
2019-01-30T12:30:43.339Z,2.20
2019-01-30T12:33:13.170Z,2.20
2019-01-30T12:35:42.629Z,2.20
2019-01-30T12:38:12.076Z,2.20
2019-01-30T12:40:41.642Z,2.30
2019-01-30T12:43:11.120Z,2.30
2019-01-30T12:45:40.592Z,2.40
2019-01-30T12:48:10.924Z,2.60
2019-01-30T12:50:40.869Z,2.60
2019-01-30T12:53:10.287Z,2.60
2019-01-30T12:55:39.741Z,2.50
2019-01-30T12:58:09.665Z,2.50
2019-01-30T13:00:41.066Z,2.40
2019-01-30T13:03:10.517Z,2.50
2019-01-30T13:05:39.956Z,2.50
2019-01-30T13:08:09.716Z,2.60
2019-01-30T13:10:39.153Z,2.60
2019-01-30T13:13:08.576Z,2.70
2019-01-30T13:15:38.434Z,2.80
2019-01-30T13:18:17.464Z,2.90
2019-01-30T13:20:39.347Z,2.90
2019-01-30T13:23:09.226Z,2.80
2019-01-30T13:25:38.661Z,2.80
2019-01-30T13:28:08.189Z,2.80
2019-01-30T13:30:39.963Z,2.80
2019-01-30T13:33:10.805Z,2.60
2019-01-30T13:35:40.336Z,2.60
2019-01-30T13:38:09.909Z,2.50
2019-01-30T13:40:41.385Z,2.30
2019-01-30T13:43:11.312Z,2.20
2019-01-30T13:45:40.899Z,2.20
2019-01-30T13:48:13.958Z,2.20
2019-01-30T13:50:43.446Z,2.20
2019-01-30T13:53:14.403Z,2.20
2019-01-30T13:55:43.965Z,2.20
2019-01-30T13:58:13.411Z,2.20
2019-01-30T14:00:42.991Z,2.20
2019-01-30T14:03:12.464Z,2.20
2019-01-30T14:05:41.885Z,2.20
2019-01-30T14:08:12.697Z,2.00
2019-01-30T14:10:42.272Z,2.00
2019-01-30T14:13:11.794Z,2.00
2019-01-30T14:15:41.257Z,1.90
2019-01-30T14:18:10.756Z,1.70
2019-01-30T14:20:40.236Z,1.60
2019-01-30T14:23:10.104Z,1.60
2019-01-30T14:25:39.535Z,1.50
2019-01-30T14:28:10.057Z,1.50
2019-01-30T14:30:40.503Z,1.50
2019-01-30T14:33:10.859Z,1.30
2019-01-30T14:35:42.457Z,1.30
2019-01-30T14:38:12.075Z,1.30
2019-01-30T14:40:42.129Z,1.20
2019-01-30T14:43:11.604Z,1.20
2019-01-30T14:45:41.125Z,1.10
2019-01-30T14:48:10.555Z,1.00
2019-01-30T14:50:40.011Z,0.90
2019-01-30T14:53:09.437Z,0.80
2019-01-30T14:55:38.916Z,0.80
2019-01-30T14:58:09.486Z,0.70
2019-01-30T15:00:38.921Z,0.80
2019-01-30T15:03:08.910Z,0.80
2019-01-30T15:05:38.449Z,0.70
2019-01-30T15:08:07.888Z,0.70
2019-01-30T15:10:37.704Z,0.70
2019-01-30T15:13:07.905Z,0.60
2019-01-30T15:15:37.603Z,0.60
2019-01-30T15:18:08.091Z,0.50
2019-01-30T15:20:38.376Z,0.40
2019-01-30T15:23:09.001Z,0.40
2019-01-30T15:25:39.022Z,0.40
2019-01-30T15:28:10.569Z,0.30
2019-01-30T15:30:45.343Z,0.20
2019-01-30T15:33:14.796Z,0.20
2019-01-30T15:35:44.598Z,0.20
2019-01-30T15:38:15.983Z,0.20
2019-01-30T15:40:45.482Z,0.10
2019-01-30T15:43:15.018Z,0.10
2019-01-30T15:45:44.834Z,0.10
2019-01-30T15:48:14.715Z,0.00
2019-01-30T15:50:44.470Z,0.00
2019-01-30T15:53:19.798Z,-0.10
2019-01-30T15:55:49.604Z,-0.20
2019-01-30T15:58:19.328Z,-0.20
2019-01-30T16:00:59.548Z,-0.20
2019-01-30T16:03:29.161Z,-0.20
2019-01-30T16:05:58.709Z,-0.20
2019-01-30T16:08:34.084Z,-0.20
2019-01-30T16:11:03.729Z,-0.20
2019-01-30T16:13:33.479Z,-0.30
2019-01-30T16:16:04.769Z,-0.20
2019-01-30T16:18:34.269Z,-0.30
2019-01-30T16:21:03.760Z,-0.30
2019-01-30T16:23:34.324Z,-0.40
2019-01-30T16:26:03.901Z,-0.40
2019-01-30T16:28:33.398Z,-0.40
2019-01-30T16:31:02.865Z,-0.40
2019-01-30T16:33:32.391Z,-0.50
2019-01-30T16:36:01.877Z,-0.50
2019-01-30T16:38:31.386Z,-0.50
2019-01-30T16:41:01.285Z,-0.50
2019-01-30T16:43:30.689Z,-0.50
2019-01-30T16:46:00.549Z,-0.60
2019-01-30T16:48:31.094Z,-0.60
2019-01-30T16:51:01.035Z,-0.60
2019-01-30T16:53:30.950Z,-0.60
2019-01-30T16:56:00.382Z,-0.70
2019-01-30T16:58:29.852Z,-0.70
2019-01-30T17:00:59.334Z,-0.80
2019-01-30T17:03:29.142Z,-0.80
2019-01-30T17:06:07.040Z,-0.80
2019-01-30T17:08:29.743Z,-0.70
2019-01-30T17:10:59.204Z,-0.80
2019-01-30T17:13:28.729Z,-0.90
2019-01-30T17:15:58.228Z,-0.90
2019-01-30T17:18:27.971Z,-1.00
2019-01-30T17:20:57.423Z,-1.00
2019-01-30T17:23:26.878Z,-0.90
2019-01-30T17:25:56.328Z,-0.90
2019-01-30T17:28:25.794Z,-0.90
2019-01-30T17:31:01.837Z,-0.90
2019-01-30T17:33:31.310Z,-1.00
2019-01-30T17:36:00.821Z,-1.00
2019-01-30T17:38:30.315Z,-1.00
2019-01-30T17:40:59.761Z,-0.90
2019-01-30T17:43:29.213Z,-1.00
2019-01-30T17:45:58.667Z,-0.90
2019-01-30T17:48:28.146Z,-1.00
2019-01-30T17:50:57.576Z,-1.00
2019-01-30T17:53:27.097Z,-1.00
2019-01-30T17:55:56.866Z,-1.00
2019-01-30T17:58:26.421Z,-1.00
2019-01-30T18:00:59.563Z,-1.00
2019-01-30T18:03:29.041Z,-1.00
2019-01-30T18:05:58.581Z,-1.00
2019-01-30T18:08:29.704Z,-1.00
2019-01-30T18:10:59.229Z,-1.00
2019-01-30T18:13:28.716Z,-1.00
2019-01-30T18:15:58.187Z,-1.00
2019-01-30T18:18:27.645Z,-1.00
2019-01-30T18:20:57.590Z,-1.00
2019-01-30T18:23:27.087Z,-1.00
2019-01-30T18:25:56.686Z,-1.00
2019-01-30T18:28:26.215Z,-1.00
2019-01-30T18:30:55.663Z,-1.00
2019-01-30T18:33:25.098Z,-1.10
2019-01-30T18:35:55.601Z,-1.10
2019-01-30T18:38:25.098Z,-1.10
2019-01-30T18:40:54.568Z,-1.10
2019-01-30T18:43:24.308Z,-1.10
2019-01-30T18:45:53.771Z,-1.10
2019-01-30T18:48:23.242Z,-1.10
2019-01-30T18:50:52.704Z,-1.10
2019-01-30T18:53:22.156Z,-1.10
2019-01-30T18:55:51.608Z,-1.20
2019-01-30T18:58:21.091Z,-1.20
2019-01-30T19:00:50.815Z,-1.10
2019-01-30T19:03:21.089Z,-1.10
2019-01-30T19:05:51.085Z,-1.20
2019-01-30T19:08:20.775Z,-1.20
2019-01-30T19:10:50.393Z,-1.20
2019-01-30T19:13:19.835Z,-1.10
2019-01-30T19:15:49.302Z,-1.20
2019-01-30T19:18:18.855Z,-1.20
2019-01-30T19:20:49.727Z,-1.30
2019-01-30T19:23:19.497Z,-1.20
2019-01-30T19:25:48.982Z,-1.20
2019-01-30T19:28:19.253Z,-1.30
2019-01-30T19:30:49.130Z,-1.30
2019-01-30T19:33:18.632Z,-1.30
2019-01-30T19:35:52.186Z,-1.30
2019-01-30T19:38:20.571Z,-1.30
2019-01-30T19:40:50.027Z,-1.30
2019-01-30T19:43:19.535Z,-1.40
2019-01-30T19:45:48.970Z,-1.50
2019-01-30T19:48:18.455Z,-1.50
2019-01-30T19:50:47.990Z,-1.50
2019-01-30T19:53:18.248Z,-1.40
2019-01-30T19:55:48.195Z,-1.50
2019-01-30T19:58:17.694Z,-1.50
2019-01-30T20:00:48.772Z,-1.40
2019-01-30T20:03:21.529Z,-1.40
2019-01-30T20:05:51.060Z,-1.40
2019-01-30T20:08:20.582Z,-1.50
2019-01-30T20:10:50.127Z,-1.50
2019-01-30T20:13:19.722Z,-1.40
2019-01-30T20:15:49.853Z,-1.50
2019-01-30T20:18:19.313Z,-1.50
2019-01-30T20:20:49.487Z,-1.40
2019-01-30T20:23:19.875Z,-1.50
2019-01-30T20:25:49.357Z,-1.50
2019-01-30T20:28:18.863Z,-1.60
2019-01-30T20:30:48.432Z,-1.60
2019-01-30T20:33:17.945Z,-1.50
2019-01-30T20:35:47.457Z,-1.50
2019-01-30T20:38:19.289Z,-1.60
2019-01-30T20:40:49.509Z,-1.60
2019-01-30T20:43:19.554Z,-1.60
2019-01-30T20:45:49.019Z,-1.60
2019-01-30T20:48:18.633Z,-1.70
2019-01-30T20:50:48.091Z,-1.70
2019-01-30T20:53:17.582Z,-1.70
2019-01-30T20:55:47.186Z,-1.70
2019-01-30T20:58:16.720Z,-1.70
2019-01-30T21:00:46.557Z,-1.70
2019-01-30T21:03:16.025Z,-1.70
2019-01-30T21:05:45.586Z,-1.80
2019-01-30T21:08:15.024Z,-1.80
2019-01-30T21:10:44.531Z,-1.80
2019-01-30T21:13:14.184Z,-1.80
2019-01-30T21:15:43.656Z,-1.80
2019-01-30T21:18:13.095Z,-1.80
2019-01-30T21:20:42.931Z,-1.90
2019-01-30T21:23:12.688Z,-1.90
2019-01-30T21:25:42.135Z,-1.90
2019-01-30T21:28:11.583Z,-1.90
2019-01-30T21:30:41.055Z,-1.90
2019-01-30T21:33:10.592Z,-1.90
2019-01-30T21:35:40.563Z,-2.00
2019-01-30T21:38:10.022Z,-2.00
2019-01-30T21:40:39.486Z,-2.00
2019-01-30T21:43:08.995Z,-2.00
2019-01-30T21:45:38.472Z,-2.00
2019-01-30T21:48:07.932Z,-2.10
2019-01-30T21:50:37.667Z,-2.10
2019-01-30T21:53:07.497Z,-2.10
2019-01-30T21:55:37.336Z,-2.10
2019-01-30T21:58:06.793Z,-2.10
2019-01-30T22:00:36.310Z,-2.10
2019-01-30T22:03:06.024Z,-2.20
2019-01-30T22:05:35.497Z,-2.10
2019-01-30T22:08:05.151Z,-2.10
2019-01-30T22:10:34.600Z,-2.20
2019-01-30T22:13:04.119Z,-2.20
2019-01-30T22:15:33.543Z,-2.20
2019-01-30T22:18:03.377Z,-2.20
2019-01-30T22:20:32.862Z,-2.20
2019-01-30T22:23:02.395Z,-2.20
2019-01-30T22:25:31.838Z,-2.20
2019-01-30T22:28:01.304Z,-2.20
2019-01-30T22:30:33.441Z,-2.30
2019-01-30T22:33:02.938Z,-2.30
2019-01-30T22:35:32.781Z,-2.30
2019-01-30T22:38:12.218Z,-2.30
2019-01-30T22:40:33.773Z,-2.30
2019-01-30T22:43:03.252Z,-2.30
2019-01-30T22:45:33.261Z,-2.30
2019-01-30T22:48:02.693Z,-2.30
2019-01-30T22:50:32.188Z,-2.30
2019-01-30T22:53:02.093Z,-2.30
2019-01-30T22:55:31.547Z,-2.30
2019-01-30T22:58:01.023Z,-2.30
2019-01-30T23:00:53.754Z,-2.30
2019-01-30T23:03:42.872Z,-2.30
2019-01-30T23:06:52.597Z,-2.40
2019-01-30T23:10:02.468Z,-2.40
2019-01-30T23:13:14.911Z,-2.40
2019-01-30T23:16:31.121Z,-2.50
2019-01-30T23:19:31.630Z,-2.50
2019-01-30T23:22:26.545Z,-2.50
2019-01-30T23:25:27.569Z,-2.50
2019-01-30T23:28:12.670Z,-2.40
2019-01-30T23:31:14.311Z,-2.50
2019-01-30T23:34:16.397Z,-2.50
2019-01-30T23:37:48.091Z,-2.50
2019-01-30T23:41:04.460Z,-2.50
2019-01-30T23:44:09.533Z,-2.50
2019-01-30T23:47:29.072Z,-2.50
2019-01-30T23:50:22.501Z,-2.50
2019-01-30T23:53:17.446Z,-2.50
2019-01-30T23:56:12.759Z,-2.60
2019-01-30T23:58:58.231Z,-2.50
